Time;durP1;ratioP1;P1;durP2;ratioP2;P2;SDS_P1;SDS_P2;PMS_P1;PMS_P2;Temp;Humidity;BMP_temperature;BMP_pressure;BME280_temperature;BME280_humidity;BME280_pressure;Samples;Min_cycle;Max_cycle;Signal;HPM_P1;HPM_P2
2021/12/30 00:02:26;;;;;;;;;;;;;;;;;;5034792;28;19905;-33
2021/12/30 00:04:54;;;;;;;;;;;;;;;;;;5034635;28;19968;-29
2021/12/30 00:07:20;;;;;;;;;;;;;;;;;;5035110;28;19905;-26
2021/12/30 00:09:46;;;;;;;;;;;;;;;;;;5034942;28;19951;-31
2021/12/30 00:12:14;;;;;;;;;;;;;;;;;;5035071;28;19924;-27
2021/12/30 00:14:40;;;;;;;;;;;;;;;;;;5034863;28;20063;-26
2021/12/30 00:17:08;;;;;;;;;;;;;;;;;;5034831;28;19905;-35
2021/12/30 00:19:36;;;;;;;;;;;;;;;;;;5034852;28;20239;-31
2021/12/30 00:22:02;;;;;;;;;;;;;;;;;;5034901;28;19956;-32
2021/12/30 00:24:29;;;;;;;;;;;;;;;;;;5034748;28;19917;-32
2021/12/30 00:26:57;;;;;;;;;;;;;;;;;;5034747;28;19901;-29
2021/12/30 00:29:24;;;;;;;;;;;;;;;;;;5034668;28;19909;-29
2021/12/30 00:31:51;;;;;;;;;;;;;;;;;;5034564;28;19905;-32
2021/12/30 00:34:17;;;;;;;;;;;;;;;;;;5017996;28;19932;-29
2021/12/30 00:36:43;;;;;;;;;;;;;;;;;;5017145;28;19916;-32
2021/12/30 00:39:11;;;;;;;;;;;;;;;;;;5034587;28;19974;-26
2021/12/30 00:41:37;;;;;;;;;;;;;;;;;;5034703;28;19995;-33
2021/12/30 00:44:03;;;;;;;;;;;;;;;;;;5034421;28;19947;-29
2021/12/30 00:46:29;;;;;;;;;;;;;;;;;;5034424;28;19908;-29
2021/12/30 00:48:55;;;;;;;;;;;;;;;;;;5034524;28;19905;-31
2021/12/30 00:51:23;;;;;;;;;;;;;;;;;;5034746;28;19992;-31
2021/12/30 00:53:49;;;;;;;;;;;;;;;;;;5034384;28;19909;-27
2021/12/30 00:56:15;;;;;;;;;;;;;;;;;;5034638;28;19920;-29
2021/12/30 00:58:41;;;;;;;;;;;;;;;;;;5035611;28;19920;-30
2021/12/30 01:01:07;;;;;;;;;;;;;;;;;;5038351;28;19913;-30
2021/12/30 01:03:35;;;;;;;;;;;;;;;;;;5037999;28;20251;-32
2021/12/30 01:06:01;;;;;;;;;;;;;;;;;;5038380;28;19919;-30
2021/12/30 01:08:28;;;;;;;;;;;;;;;;;;5038315;28;19909;-27
2021/12/30 01:10:54;;;;;;;;;;;;;;;;;;5020482;28;19916;-31
2021/12/30 01:13:27;;;;;;;;;;;;;;;;;;5037915;28;20003;-29
2021/12/30 01:18:55;;;;;;;;;;;;;;;;;;5037937;28;20340;-28
2021/12/30 01:21:09;;;;;;;;;;;;;;;;;;5037001;28;19928;-33
2021/12/30 01:23:41;;;;;;;;;;;;;;;;;;5037729;28;19905;-29
2021/12/30 01:26:08;;;;;;;;;;;;;;;;;;5037681;28;19920;-29
2021/12/30 01:28:34;;;;;;;;;;;;;;;;;;5037925;28;19905;-30
2021/12/30 01:31:00;;;;;;;;;;;;;;;;;;5037583;28;19920;-29
2021/12/30 01:33:26;;;;;;;;;;;;;;;;;;5020073;28;20002;-30
2021/12/30 01:35:53;;;;;;;;;;;;;;;;;;5037455;28;19944;-29
2021/12/30 01:38:19;;;;;;;;;;;;;;;;;;5037501;28;19904;-29
2021/12/30 01:40:45;;;;;;;;;;;;;;;;;;5037307;28;19939;-29
2021/12/30 01:43:13;;;;;;;;;;;;;;;;;;5037863;28;19905;-30
2021/12/30 01:45:39;;;;;;;;;;;;;;;;;;5037366;28;20366;-27
2021/12/30 01:48:05;;;;;;;;;;;;;;;;;;5037398;28;19905;-29
2021/12/30 01:50:31;;;;;;;;;;;;;;;;;;5019841;28;19913;-32
2021/12/30 01:52:58;;;;;;;;;;;;;;;;;;5037499;28;19948;-35
2021/12/30 01:55:26;;;;;;;;;;;;;;;;;;5037460;28;20256;-32
2021/12/30 01:57:52;;;;;;;;;;;;;;;;;;5037460;28;20271;-30
2021/12/30 02:00:19;;;;;;;;;;;;;;;;;;5037355;28;19913;-32
2021/12/30 02:02:45;;;;;;;;;;;;;;;;;;5037173;28;19931;-28
2021/12/30 02:05:11;;;;;;;;;;;;;;;;;;5036782;28;20012;-31
2021/12/30 02:07:39;;;;;;;;;;;;;;;;;;5036982;28;19917;-31
2021/12/30 02:10:07;;;;;;;;;;;;;;;;;;5036646;28;19909;-29
2021/12/30 02:12:33;;;;;;;;;;;;;;;;;;5036807;28;19921;-28
2021/12/30 02:15:00;;;;;;;;;;;;;;;;;;5019323;28;19916;-33
2021/12/30 02:17:27;;;;;;;;;;;;;;;;;;5037153;28;19905;-26
2021/12/30 02:19:53;;;;;;;;;;;;;;;;;;5036660;28;20255;-29
2021/12/30 02:22:21;;;;;;;;;;;;;;;;;;5036957;28;20240;-34
2021/12/30 02:24:49;;;;;;;;;;;;;;;;;;5036629;28;19923;-29
2021/12/30 02:27:15;;;;;;;;;;;;;;;;;;5036907;28;19916;-27
2021/12/30 02:29:43;;;;;;;;;;;;;;;;;;5036539;28;20332;-30
2021/12/30 02:32:11;;;;;;;;;;;;;;;;;;5036719;28;19904;-32
2021/12/30 02:34:38;;;;;;;;;;;;;;;;;;5036479;28;19931;-28
2021/12/30 02:37:04;;;;;;;;;;;;;;;;;;5036958;28;20241;-28
2021/12/30 02:39:31;;;;;;;;;;;;;;;;;;5036649;28;19995;-35
2021/12/30 02:41:57;;;;;;;;;;;;;;;;;;5036171;28;19909;-30
2021/12/30 02:44:25;;;;;;;;;;;;;;;;;;5036614;28;19937;-29
2021/12/30 02:46:52;;;;;;;;;;;;;;;;;;5036186;28;19963;-29
2021/12/30 02:49:19;;;;;;;;;;;;;;;;;;5036926;28;19936;-29
2021/12/30 02:51:45;;;;;;;;;;;;;;;;;;5018737;28;19951;-29
2021/12/30 02:54:11;;;;;;;;;;;;;;;;;;5035937;28;20403;-27
2021/12/30 02:56:41;;;;;;;;;;;;;;;;;;5036327;28;20252;-35
2021/12/30 02:59:08;;;;;;;;;;;;;;;;;;5035902;28;19951;-33
2021/12/30 03:01:37;;;;;;;;;;;;;;;;;;5035916;28;19921;-32
2021/12/30 03:04:03;;;;;;;;;;;;;;;;;;5035480;28;19912;-27
2021/12/30 03:06:30;;;;;;;;;;;;;;;;;;5035862;28;20229;-33
2021/12/30 03:08:58;;;;;;;;;;;;;;;;;;5018715;28;20046;-31
2021/12/30 03:11:25;;;;;;;;;;;;;;;;;;5018598;28;20388;-30
2021/12/30 03:13:53;;;;;;;;;;;;;;;;;;5035672;28;19998;-33
2021/12/30 03:16:21;;;;;;;;;;;;;;;;;;5018214;28;20233;-29
2021/12/30 03:18:48;;;;;;;;;;;;;;;;;;5035657;28;20387;-28
2021/12/30 03:21:14;;;;;;;;;;;;;;;;;;5034784;28;20010;-27
2021/12/30 03:23:40;;;;;;;;;;;;;;;;;;5035415;28;20055;-27
2021/12/30 03:26:06;;;;;;;;;;;;;;;;;;5035713;28;20248;-33
2021/12/30 03:28:33;;;;;;;;;;;;;;;;;;5035497;28;20344;-26
2021/12/30 03:31:00;;;;;;;;;;;;;;;;;;5035379;28;19909;-32
2021/12/30 03:36:16;;;;;;;;;;;;;;;;;;5035690;28;20347;-29
2021/12/30 03:38:42;;;;;;;;;;;;;;;;;;5035575;28;19972;-26
2021/12/30 03:41:08;;;;;;;;;;;;;;;;;;5035187;28;19994;-32
2021/12/30 03:43:35;;;;;;;;;;;;;;;;;;5035223;28;20260;-28
2021/12/30 03:46:01;;;;;;;;;;;;;;;;;;5017789;28;20340;-32
2021/12/30 03:48:33;;;;;;;;;;;;;;;;;;5035077;28;20007;-29
2021/12/30 03:51:04;;;;;;;;;;;;;;;;;;5035040;28;19915;-31
2021/12/30 03:53:30;;;;;;;;;;;;;;;;;;5035242;28;20217;-35
2021/12/30 03:55:56;;;;;;;;;;;;;;;;;;5035037;28;20298;-33
2021/12/30 03:58:22;;;;;;;;;;;;;;;;;;5035057;28;19955;-30
2021/12/30 04:00:50;;;;;;;;;;;;;;;;;;5035139;28;19917;-31
2021/12/30 04:03:16;;;;;;;;;;;;;;;;;;5035223;28;20271;-31
2021/12/30 04:05:44;;;;;;;;;;;;;;;;;;5034716;28;19917;-31
2021/12/30 04:08:12;;;;;;;;;;;;;;;;;;5034814;28;19909;-33
2021/12/30 04:10:40;;;;;;;;;;;;;;;;;;5035104;28;20244;-30
2021/12/30 04:13:06;;;;;;;;;;;;;;;;;;5035026;28;19932;-30
2021/12/30 04:15:34;;;;;;;;;;;;;;;;;;5034836;28;20264;-29
2021/12/30 04:18:00;;;;;;;;;;;;;;;;;;5017363;28;19920;-33
2021/12/30 04:20:26;;;;;;;;;;;;;;;;;;5017262;28;19979;-30
2021/12/30 04:22:54;;;;;;;;;;;;;;;;;;5034948;28;19962;-27
2021/12/30 04:25:20;;;;;;;;;;;;;;;;;;5017287;28;19963;-30
2021/12/30 04:27:46;;;;;;;;;;;;;;;;;;5017622;28;19963;-27
2021/12/30 04:30:12;;;;;;;;;;;;;;;;;;5034626;28;19913;-29
2021/12/30 04:32:38;;;;;;;;;;;;;;;;;;5018381;28;19908;-33
2021/12/30 04:35:04;;;;;;;;;;;;;;;;;;5038949;28;19913;-35
2021/12/30 04:37:30;;;;;;;;;;;;;;;;;;5038653;28;19905;-30
2021/12/30 04:39:58;;;;;;;;;;;;;;;;;;5038668;28;19908;-33
2021/12/30 04:42:24;;;;;;;;;;;;;;;;;;5038397;28;19905;-33
2021/12/30 04:44:50;;;;;;;;;;;;;;;;;;5021038;28;20395;-34
2021/12/30 04:47:20;;;;;;;;;;;;;;;;;;5038702;28;20120;-29
2021/12/30 04:49:46;;;;;;;;;;;;;;;;;;5038325;28;19909;-29
2021/12/30 04:52:12;;;;;;;;;;;;;;;;;;5038098;28;20038;-30
2021/12/30 04:54:38;;;;;;;;;;;;;;;;;;5038243;28;19956;-27
2021/12/30 04:57:04;;;;;;;;;;;;;;;;;;5038014;28;19955;-31
2021/12/30 04:59:31;;;;;;;;;;;;;;;;;;5020217;28;19909;-29
2021/12/30 05:04:38;;;;;;;;;;;;;;;;;;4997526;28;20016;-23
2021/12/30 05:07:04;;;;;;;;;;;;;;;;;;4998402;28;19976;-24
2021/12/30 05:09:31;;;;;;;;;;;;;;;;;;4998635;28;19910;-24
2021/12/30 05:11:57;;;;;;;;;;;;;;;;;;4997153;28;20335;-24
2021/12/30 05:14:25;;;;;;;;;;;;;;;;;;4998313;28;19909;-24
2021/12/30 05:16:55;;;;;;;;;;;;;;;;;;4998358;28;19905;-24
2021/12/30 05:19:23;;;;;;;;;;;;;;;;;;4998114;28;19937;-24
2021/12/30 05:21:49;;;;;;;;;;;;;;;;;;4997757;28;20008;-24
2021/12/30 05:24:17;;;;;;;;;;;;;;;;;;4997819;28;19987;-24
2021/12/30 05:26:43;;;;;;;;;;;;;;;;;;4997716;28;19955;-24
2021/12/30 05:29:09;;;;;;;;;;;;;;;;;;4997761;28;19956;-25
2021/12/30 05:31:37;;;;;;;;;;;;;;;;;;4997838;28;19906;-24
2021/12/30 05:34:05;;;;;;;;;;;;;;;;;;4996907;28;19913;-24
2021/12/30 05:36:31;;;;;;;;;;;;;;;;;;4998020;28;19905;-24
2021/12/30 05:38:59;;;;;;;;;;;;;;;;;;4998049;28;20049;-25
2021/12/30 05:41:29;;;;;;;;;;;;;;;;;;4998006;28;19982;-25
2021/12/30 05:43:56;;;;;;;;;;;;;;;;;;4997137;28;19988;-25
2021/12/30 05:46:22;;;;;;;;;;;;;;;;;;4997984;28;19925;-25
2021/12/30 05:48:48;;;;;;;;;;;;;;;;;;4996609;28;19910;-25
2021/12/30 05:51:14;;;;;;;;;;;;;;;;;;4997886;28;19968;-25
2021/12/30 05:53:42;;;;;;;;;;;;;;;;;;4997675;28;19909;-25
2021/12/30 05:56:08;;;;;;;;;;;;;;;;;;4997386;28;19972;-25
2021/12/30 05:58:34;;;;;;;;;;;;;;;;;;4996446;28;19905;-25
2021/12/30 06:01:00;;;;;;;;;;;;;;;;;;4997672;28;20229;-25
2021/12/30 06:03:26;;;;;;;;;;;;;;;;;;4996983;28;20248;-25
2021/12/30 06:05:54;;;;;;;;;;;;;;;;;;4997360;28;19916;-25
2021/12/30 06:08:20;;;;;;;;;;;;;;;;;;4996212;28;19999;-25
2021/12/30 06:10:46;;;;;;;;;;;;;;;;;;4997374;28;19909;-25
2021/12/30 06:13:13;;;;;;;;;;;;;;;;;;4997336;28;20256;-24
2021/12/30 06:15:39;;;;;;;;;;;;;;;;;;4996297;28;19910;-25
2021/12/30 06:18:07;;;;;;;;;;;;;;;;;;4995942;28;19962;-25
2021/12/30 06:20:33;;;;;;;;;;;;;;;;;;4997178;28;20032;-25
2021/12/30 06:22:59;;;;;;;;;;;;;;;;;;4996911;28;19909;-25
2021/12/30 06:25:25;;;;;;;;;;;;;;;;;;4997129;28;20030;-25
2021/12/30 06:27:51;;;;;;;;;;;;;;;;;;4996975;28;19914;-25
2021/12/30 06:30:19;;;;;;;;;;;;;;;;;;4997231;28;19957;-25
2021/12/30 06:32:45;;;;;;;;;;;;;;;;;;4995259;28;19917;-25
2021/12/30 06:35:11;;;;;;;;;;;;;;;;;;4996590;28;19906;-25
2021/12/30 06:37:38;;;;;;;;;;;;;;;;;;4996664;28;19909;-24
2021/12/30 06:40:04;;;;;;;;;;;;;;;;;;4996707;28;19928;-25
2021/12/30 06:42:32;;;;;;;;;;;;;;;;;;4995283;28;20280;-25
2021/12/30 06:45:00;;;;;;;;;;;;;;;;;;4996975;28;20009;-25
2021/12/30 06:47:26;;;;;;;;;;;;;;;;;;4996270;28;19917;-25
2021/12/30 06:49:59;;;;;;;;;;;;;;;;;;4996656;28;19917;-25
2021/12/30 06:52:25;;;;;;;;;;;;;;;;;;4995769;28;19949;-25
2021/12/30 06:54:53;;;;;;;;;;;;;;;;;;4996465;28;19941;-26
2021/12/30 06:57:19;;;;;;;;;;;;;;;;;;4995532;28;19905;-24
2021/12/30 06:59:46;;;;;;;;;;;;;;;;;;4995422;28;19991;-25
2021/12/30 07:02:12;;;;;;;;;;;;;;;;;;4996028;28;19913;-24
2021/12/30 07:04:38;;;;;;;;;;;;;;;;;;4996654;28;20232;-24
2021/12/30 07:07:06;;;;;;;;;;;;;;;;;;4995931;28;19941;-24
2021/12/30 07:09:32;;;;;;;;;;;;;;;;;;4995689;28;19972;-24
2021/12/30 07:11:58;;;;;;;;;;;;;;;;;;4995456;28;19921;-24
2021/12/30 07:14:25;;;;;;;;;;;;;;;;;;4995574;28;19918;-24
2021/12/30 07:16:59;;;;;;;;;;;;;;;;;;5091952;27;19916;-29
2021/12/30 07:19:25;;;;;;;;;;;;;;;;;;5091450;28;19951;-32
2021/12/30 07:21:51;;;;;;;;;;;;;;;;;;5091327;28;19998;-28
2021/12/30 07:24:17;;;;;;;;;;;;;;;;;;5092025;28;20352;-26
2021/12/30 07:26:43;;;;;;;;;;;;;;;;;;5091153;28;19917;-30
2021/12/30 07:29:09;;;;;;;;;;;;;;;;;;5091055;28;19935;-30
2021/12/30 07:31:35;;;;;;;;;;;;;;;;;;5091209;28;19912;-27
2021/12/30 07:34:01;;;;;;;;;;;;;;;;;;5090820;28;19965;-30
2021/12/30 07:36:27;;;;;;;;;;;;;;;;;;5090301;28;20247;-31
2021/12/30 07:38:53;;;;;;;;;;;;;;;;;;5091346;28;19912;-29
2021/12/30 07:41:19;;;;;;;;;;;;;;;;;;5090480;28;19913;-28
2021/12/30 07:43:45;;;;;;;;;;;;;;;;;;5091477;28;20373;-33
2021/12/30 07:46:11;;;;;;;;;;;;;;;;;;5091780;28;20250;-33
2021/12/30 07:48:37;;;;;;;;;;;;;;;;;;5091357;28;20004;-30
2021/12/30 07:51:03;;;;;;;;;;;;;;;;;;5091358;28;20255;-30
2021/12/30 07:53:29;;;;;;;;;;;;;;;;;;5090234;28;19908;-32
2021/12/30 07:55:55;;;;;;;;;;;;;;;;;;5091209;28;19927;-31
2021/12/30 07:58:22;;;;;;;;;;;;;;;;;;5091438;28;19919;-31
2021/12/30 08:00:48;;;;;;;;;;;;;;;;;;5090380;28;19923;-29
2021/12/30 08:03:14;;;;;;;;;;;;;;;;;;5091306;28;19908;-32
2021/12/30 08:05:40;;;;;;;;;;;;;;;;;;5090212;28;20539;-27
2021/12/30 08:08:06;;;;;;;;;;;;;;;;;;5090851;28;19994;-31
2021/12/30 08:10:32;;;;;;;;;;;;;;;;;;5090812;28;19947;-32
2021/12/30 08:12:58;;;;;;;;;;;;;;;;;;5090859;28;19908;-28
2021/12/30 08:15:24;;;;;;;;;;;;;;;;;;5097131;28;19920;-30
2021/12/30 08:17:50;;;;;;;;;;;;;;;;;;5110256;28;20353;-33
2021/12/30 08:20:16;;;;;;;;;;;;;;;;;;5111540;28;19916;-28
2021/12/30 08:22:42;;;;;;;;;;;;;;;;;;5110810;28;19915;-27
2021/12/30 08:25:08;;;;;;;;;;;;;;;;;;5111040;28;20280;-33
2021/12/30 08:27:34;;;;;;;;;;;;;;;;;;5101513;28;19914;-33
2021/12/30 08:30:00;;;;;;;;;;;;;;;;;;5097244;28;20378;-31
2021/12/30 08:32:26;;;;;;;;;;;;;;;;;;5097662;28;19908;-32
2021/12/30 08:34:52;;;;;;;;;;;;;;;;;;5096520;28;19943;-32
2021/12/30 08:37:18;;;;;;;;;;;;;;;;;;5097794;28;20342;-28
2021/12/30 08:39:44;;;;;;;;;;;;;;;;;;5097413;28;19913;-35
2021/12/30 08:42:10;;;;;;;;;;;;;;;;;;5097474;28;19916;-30
2021/12/30 08:44:36;;;;;;;;;;;;;;;;;;5097431;28;20228;-31
2021/12/30 08:47:02;;;;;;;;;;;;;;;;;;5097131;28;20002;-32
2021/12/30 08:49:28;;;;;;;;;;;;;;;;;;5096154;28;20235;-29
2021/12/30 08:51:54;;;;;;;;;;;;;;;;;;5097254;28;19908;-27
2021/12/30 08:54:20;;;;;;;;;;;;;;;;;;5097042;28;20024;-27
2021/12/30 08:56:46;;;;;;;;;;;;;;;;;;5095919;28;19952;-32
2021/12/30 08:59:12;;;;;;;;;;;;;;;;;;5096748;28;20346;-28
2021/12/30 09:01:39;;;;;;;;;;;;;;;;;;5097107;28;19909;-35
2021/12/30 09:04:05;;;;;;;;;;;;;;;;;;5096853;28;19963;-32
2021/12/30 09:06:31;;;;;;;;;;;;;;;;;;5095819;28;19908;-27
2021/12/30 09:08:57;;;;;;;;;;;;;;;;;;5096451;28;20307;-31
2021/12/30 09:11:23;;;;;;;;;;;;;;;;;;5095254;28;20238;-30
2021/12/30 09:13:49;;;;;;;;;;;;;;;;;;5096470;28;19923;-28
2021/12/30 09:16:15;;;;;;;;;;;;;;;;;;5096022;28;19973;-31
2021/12/30 09:18:42;;;;;;;;;;;;;;;;;;5096709;28;19912;-28
2021/12/30 09:21:08;;;;;;;;;;;;;;;;;;5096574;28;20418;-25
2021/12/30 09:23:34;;;;;;;;;;;;;;;;;;5096553;28;19969;-29
2021/12/30 09:26:00;;;;;;;;;;;;;;;;;;5096512;28;19916;-26
2021/12/30 09:28:26;;;;;;;;;;;;;;;;;;5096294;28;19922;-26
2021/12/30 09:30:53;;;;;;;;;;;;;;;;;;5096694;28;20010;-27
2021/12/30 09:33:19;;;;;;;;;;;;;;;;;;5096535;28;19912;-31
2021/12/30 09:35:47;;;;;;;;;;;;;;;;;;5096080;28;19948;-31
2021/12/30 09:38:13;;;;;;;;;;;;;;;;;;5094284;28;20270;-25
2021/12/30 09:40:39;;;;;;;;;;;;;;;;;;5095459;28;19912;-29
2021/12/30 09:43:09;;;;;;;;;;;;;;;;;;5095940;28;19915;-29
2021/12/30 09:45:36;;;;;;;;;;;;;;;;;;5096022;28;20002;-28
2021/12/30 09:48:04;;;;;;;;;;;;;;;;;;5095933;28;19915;-30
2021/12/30 09:50:30;;;;;;;;;;;;;;;;;;5096032;28;19916;-28
2021/12/30 09:52:56;;;;;;;;;;;;;;;;;;5095996;28;19908;-28
2021/12/30 09:55:22;;;;;;;;;;;;;;;;;;5095450;28;19916;-28
2021/12/30 09:57:48;;;;;;;;;;;;;;;;;;5095339;28;20009;-30
2021/12/30 10:00:15;;;;;;;;;;;;;;;;;;5094016;28;19912;-25
2021/12/30 10:02:41;;;;;;;;;;;;;;;;;;5094236;28;19916;-34
2021/12/30 10:05:07;;;;;;;;;;;;;;;;;;5093935;28;19965;-30
2021/12/30 10:07:33;;;;;;;;;;;;;;;;;;5094749;28;20231;-28
2021/12/30 10:10:03;;;;;;;;;;;;;;;;;;5094840;28;19919;-32
2021/12/30 10:12:30;;;;;;;;;;;;;;;;;;5093735;28;20010;-27
2021/12/30 10:14:56;;;;;;;;;;;;;;;;;;5094564;28;19924;-32
2021/12/30 10:17:22;;;;;;;;;;;;;;;;;;5095031;28;19912;-29
2021/12/30 10:19:49;;;;;;;;;;;;;;;;;;5094744;28;19919;-32
2021/12/30 10:22:15;;;;;;;;;;;;;;;;;;5093551;28;19908;-31
2021/12/30 10:24:41;;;;;;;;;;;;;;;;;;5093498;28;19912;-33
2021/12/30 10:27:07;;;;;;;;;;;;;;;;;;5094514;28;20028;-33
2021/12/30 10:29:33;;;;;;;;;;;;;;;;;;5094570;28;19909;-28
2021/12/30 10:32:00;;;;;;;;;;;;;;;;;;5094739;28;19919;-30
2021/12/30 10:34:26;;;;;;;;;;;;;;;;;;5094299;28;20313;-33
2021/12/30 10:36:52;;;;;;;;;;;;;;;;;;5093533;28;20010;-28
2021/12/30 10:39:18;;;;;;;;;;;;;;;;;;5094866;28;19912;-28
2021/12/30 10:41:44;;;;;;;;;;;;;;;;;;5095253;28;20297;-29
2021/12/30 10:44:10;;;;;;;;;;;;;;;;;;5095365;28;19916;-27
2021/12/30 10:46:36;;;;;;;;;;;;;;;;;;5094825;28;20304;-29
2021/12/30 10:49:04;;;;;;;;;;;;;;;;;;5094923;28;19980;-28
2021/12/30 10:51:30;;;;;;;;;;;;;;;;;;5094686;28;19912;-29
2021/12/30 10:53:57;;;;;;;;;;;;;;;;;;5094516;28;19912;-27
2021/12/30 10:56:23;;;;;;;;;;;;;;;;;;5094535;28;19912;-28
2021/12/30 10:58:50;;;;;;;;;;;;;;;;;;5094778;28;19912;-31
2021/12/30 11:01:16;;;;;;;;;;;;;;;;;;5095048;28;19916;-27
2021/12/30 11:03:42;;;;;;;;;;;;;;;;;;5093686;28;20425;-29
2021/12/30 11:06:09;;;;;;;;;;;;;;;;;;5094514;28;20003;-25
2021/12/30 11:08:35;;;;;;;;;;;;;;;;;;5094500;28;19920;-30
2021/12/30 11:11:01;;;;;;;;;;;;;;;;;;5094661;28;19912;-27
2021/12/30 11:13:27;;;;;;;;;;;;;;;;;;5094365;28;19951;-28
2021/12/30 11:15:53;;;;;;;;;;;;;;;;;;5094212;28;19973;-32
2021/12/30 11:18:20;;;;;;;;;;;;;;;;;;5094591;28;19912;-29
2021/12/30 11:20:46;;;;;;;;;;;;;;;;;;5094444;28;20280;-27
2021/12/30 11:23:12;;;;;;;;;;;;;;;;;;5094387;28;19942;-28
2021/12/30 11:25:38;;;;;;;;;;;;;;;;;;5093430;28;19950;-29
2021/12/30 11:28:04;;;;;;;;;;;;;;;;;;5093603;28;20322;-30
2021/12/30 11:30:30;;;;;;;;;;;;;;;;;;5094708;28;19943;-32
2021/12/30 11:32:56;;;;;;;;;;;;;;;;;;5093043;28;19999;-25
2021/12/30 11:35:22;;;;;;;;;;;;;;;;;;5094074;28;20321;-32
2021/12/30 11:37:49;;;;;;;;;;;;;;;;;;5094724;28;19995;-29
2021/12/30 11:40:15;;;;;;;;;;;;;;;;;;5094447;28;19985;-28
2021/12/30 11:42:41;;;;;;;;;;;;;;;;;;5094877;28;19912;-26
2021/12/30 11:45:07;;;;;;;;;;;;;;;;;;5094706;28;20242;-31
2021/12/30 11:47:36;;;;;;;;;;;;;;;;;;5094234;28;19916;-27
2021/12/30 11:50:02;;;;;;;;;;;;;;;;;;5094064;28;20258;-28
2021/12/30 11:52:28;;;;;;;;;;;;;;;;;;5094236;28;19981;-27
2021/12/30 11:54:55;;;;;;;;;;;;;;;;;;5093983;28;19912;-26
2021/12/30 11:57:21;;;;;;;;;;;;;;;;;;5094089;28;19961;-28
2021/12/30 11:59:47;;;;;;;;;;;;;;;;;;5094018;28;20240;-33
2021/12/30 12:02:13;;;;;;;;;;;;;;;;;;5093997;28;20343;-28
2021/12/30 12:04:39;;;;;;;;;;;;;;;;;;5097528;28;20015;-28
2021/12/30 12:07:05;;;;;;;;;;;;;;;;;;5097602;28;19919;-30
2021/12/30 12:09:32;;;;;;;;;;;;;;;;;;5097496;28;19908;-27
2021/12/30 12:11:58;;;;;;;;;;;;;;;;;;5095955;28;19998;-29
2021/12/30 12:14:25;;;;;;;;;;;;;;;;;;5096915;28;20269;-32
2021/12/30 12:16:51;;;;;;;;;;;;;;;;;;5096478;28;19924;-33
2021/12/30 12:19:17;;;;;;;;;;;;;;;;;;5096993;28;19956;-29
2021/12/30 12:21:43;;;;;;;;;;;;;;;;;;5096668;28;19957;-30
2021/12/30 12:24:09;;;;;;;;;;;;;;;;;;5096889;28;19951;-30
2021/12/30 12:26:35;;;;;;;;;;;;;;;;;;5096950;28;19947;-27
2021/12/30 12:29:01;;;;;;;;;;;;;;;;;;5096909;28;19984;-28
2021/12/30 12:31:28;;;;;;;;;;;;;;;;;;5096980;28;19912;-28
2021/12/30 12:33:54;;;;;;;;;;;;;;;;;;5096619;28;19912;-33
2021/12/30 12:36:20;;;;;;;;;;;;;;;;;;5096455;28;19973;-25
2021/12/30 12:38:46;;;;;;;;;;;;;;;;;;5095785;28;19916;-29
2021/12/30 12:41:12;;;;;;;;;;;;;;;;;;5097105;28;19923;-29
2021/12/30 12:43:38;;;;;;;;;;;;;;;;;;5096891;28;19908;-30
2021/12/30 12:46:04;;;;;;;;;;;;;;;;;;5097085;28;19940;-28
2021/12/30 12:48:30;;;;;;;;;;;;;;;;;;5096037;28;20365;-27
2021/12/30 12:50:57;;;;;;;;;;;;;;;;;;5097132;28;19958;-28
2021/12/30 12:53:23;;;;;;;;;;;;;;;;;;5095652;28;19912;-32
2021/12/30 12:55:49;;;;;;;;;;;;;;;;;;5096807;28;19912;-32
2021/12/30 12:58:15;;;;;;;;;;;;;;;;;;5095863;28;19973;-34
2021/12/30 13:00:41;;;;;;;;;;;;;;;;;;5097072;28;20342;-28
2021/12/30 13:03:07;;;;;;;;;;;;;;;;;;5096598;28;19912;-26
2021/12/30 13:05:33;;;;;;;;;;;;;;;;;;5096725;28;19923;-28
2021/12/30 13:07:59;;;;;;;;;;;;;;;;;;5096897;28;19916;-32
2021/12/30 13:10:25;;;;;;;;;;;;;;;;;;5096478;28;19965;-29
2021/12/30 13:12:52;;;;;;;;;;;;;;;;;;5096367;28;20061;-30
2021/12/30 13:15:18;;;;;;;;;;;;;;;;;;5096586;28;19990;-31
2021/12/30 13:17:44;;;;;;;;;;;;;;;;;;5096128;28;19908;-27
2021/12/30 13:20:10;;;;;;;;;;;;;;;;;;5096102;28;19927;-28
2021/12/30 13:22:36;;;;;;;;;;;;;;;;;;5096404;28;19923;-30
2021/12/30 13:25:02;;;;;;;;;;;;;;;;;;5096544;28;19909;-27
2021/12/30 13:27:29;;;;;;;;;;;;;;;;;;5095053;28;19916;-31
2021/12/30 13:29:55;;;;;;;;;;;;;;;;;;5095712;28;20262;-31
2021/12/30 13:32:21;;;;;;;;;;;;;;;;;;5096042;28;19912;-29
2021/12/30 13:34:47;;;;;;;;;;;;;;;;;;5096055;28;19920;-31
2021/12/30 13:37:13;;;;;;;;;;;;;;;;;;5096111;28;20364;-30
2021/12/30 13:39:39;;;;;;;;;;;;;;;;;;5095707;28;19909;-30
2021/12/30 13:42:05;;;;;;;;;;;;;;;;;;5095953;28;19912;-30
2021/12/30 13:44:31;;;;;;;;;;;;;;;;;;5095855;28;19908;-29
2021/12/30 13:46:57;;;;;;;;;;;;;;;;;;5094900;28;19935;-27
2021/12/30 13:49:23;;;;;;;;;;;;;;;;;;5096315;28;19908;-33
2021/12/30 13:51:49;;;;;;;;;;;;;;;;;;5095876;28;20056;-31
2021/12/30 13:54:15;;;;;;;;;;;;;;;;;;5095882;28;20329;-29
2021/12/30 13:56:43;;;;;;;;;;;;;;;;;;5095867;28;20240;-32
2021/12/30 13:59:09;;;;;;;;;;;;;;;;;;5094656;28;19915;-33
2021/12/30 14:01:35;;;;;;;;;;;;;;;;;;5094365;28;19912;-31
2021/12/30 14:04:01;;;;;;;;;;;;;;;;;;5095878;28;20314;-29
2021/12/30 14:06:28;;;;;;;;;;;;;;;;;;5096083;28;20404;-29
2021/12/30 14:08:55;;;;;;;;;;;;;;;;;;5095844;28;19912;-31
2021/12/30 14:11:23;;;;;;;;;;;;;;;;;;5094919;28;19912;-32
2021/12/30 14:13:50;;;;;;;;;;;;;;;;;;5094631;28;20346;-32
2021/12/30 14:16:16;;;;;;;;;;;;;;;;;;5095215;28;20384;-35
2021/12/30 14:18:42;;;;;;;;;;;;;;;;;;5095624;28;20289;-29
2021/12/30 14:21:09;;;;;;;;;;;;;;;;;;5095370;28;19936;-35
2021/12/30 14:23:37;;;;;;;;;;;;;;;;;;5095486;28;19908;-30
2021/12/30 14:26:03;;;;;;;;;;;;;;;;;;5095042;28;19970;-29
2021/12/30 14:28:32;;;;;;;;;;;;;;;;;;5095687;28;20261;-33
2021/12/30 14:30:58;;;;;;;;;;;;;;;;;;5095511;28;19912;-32
2021/12/30 14:33:25;;;;;;;;;;;;;;;;;;5095257;28;19912;-32
2021/12/30 14:35:52;;;;;;;;;;;;;;;;;;5095075;28;19920;-27
2021/12/30 14:38:18;;;;;;;;;;;;;;;;;;5095405;28;19995;-30
2021/12/30 14:40:45;;;;;;;;;;;;;;;;;;5095296;28;20305;-39
2021/12/30 14:43:13;;;;;;;;;;;;;;;;;;5095602;28;19912;-30
2021/12/30 14:45:42;;;;;;;;;;;;;;;;;;5095206;28;20273;-30
2021/12/30 14:48:10;;;;;;;;;;;;;;;;;;5094979;28;19912;-32
2021/12/30 14:50:37;;;;;;;;;;;;;;;;;;5093986;28;20350;-30
2021/12/30 14:53:03;;;;;;;;;;;;;;;;;;5095003;28;19912;-30
2021/12/30 14:55:29;;;;;;;;;;;;;;;;;;5095330;28;19916;-26
2021/12/30 14:57:55;;;;;;;;;;;;;;;;;;5094953;28;19908;-31
2021/12/30 15:00:22;;;;;;;;;;;;;;;;;;5095107;28;20248;-35
2021/12/30 15:05:32;;;;;;;;;;;;;;;;;;5095262;28;20334;-32
2021/12/30 15:07:59;;;;;;;;;;;;;;;;;;5094980;28;19970;-31
2021/12/30 15:10:25;;;;;;;;;;;;;;;;;;5095215;28;19923;-30
2021/12/30 15:12:51;;;;;;;;;;;;;;;;;;5094793;28;19916;-32
2021/12/30 15:15:20;;;;;;;;;;;;;;;;;;5094512;28;19920;-31
2021/12/30 15:17:47;;;;;;;;;;;;;;;;;;5095019;28;19977;-32
2021/12/30 15:20:13;;;;;;;;;;;;;;;;;;5093552;28;20364;-32
2021/12/30 15:22:40;;;;;;;;;;;;;;;;;;5094971;28;20015;-32
2021/12/30 15:25:06;;;;;;;;;;;;;;;;;;5094924;28;20003;-31
2021/12/30 15:27:33;;;;;;;;;;;;;;;;;;5094656;28;20228;-33
2021/12/30 15:30:01;;;;;;;;;;;;;;;;;;5094744;28;19908;-29
2021/12/30 15:32:27;;;;;;;;;;;;;;;;;;5094253;28;19916;-34
2021/12/30 15:34:54;;;;;;;;;;;;;;;;;;5094698;28;20251;-30
2021/12/30 15:37:20;;;;;;;;;;;;;;;;;;5095088;28;19923;-27
2021/12/30 15:39:47;;;;;;;;;;;;;;;;;;5098532;28;19912;-33
2021/12/30 15:42:17;;;;;;;;;;;;;;;;;;5098153;28;19961;-29
2021/12/30 15:44:43;;;;;;;;;;;;;;;;;;5098226;28;19935;-33
2021/12/30 15:47:09;;;;;;;;;;;;;;;;;;5097216;28;20004;-28
2021/12/30 15:49:35;;;;;;;;;;;;;;;;;;5098318;28;19916;-33
2021/12/30 15:52:01;;;;;;;;;;;;;;;;;;5098267;28;19915;-35
2021/12/30 15:54:27;;;;;;;;;;;;;;;;;;5098540;28;19908;-28
2021/12/30 15:56:53;;;;;;;;;;;;;;;;;;5097897;28;19946;-30
2021/12/30 15:59:20;;;;;;;;;;;;;;;;;;5096897;28;20321;-30
2021/12/30 16:01:46;;;;;;;;;;;;;;;;;;5098174;28;19972;-32
2021/12/30 16:04:12;;;;;;;;;;;;;;;;;;5098051;28;19912;-37
2021/12/30 16:06:37;;;;;;;;;;;;;;;;;;5097728;28;20197;-32
2021/12/30 16:09:03;;;;;;;;;;;;;;;;;;5097766;28;19933;-30
2021/12/30 16:11:29;;;;;;;;;;;;;;;;;;5097498;28;19989;-32
2021/12/30 16:13:55;;;;;;;;;;;;;;;;;;5097511;28;19912;-33
2021/12/30 16:16:21;;;;;;;;;;;;;;;;;;5097209;28;19924;-28
2021/12/30 16:18:47;;;;;;;;;;;;;;;;;;5097556;28;20416;-31
2021/12/30 16:21:14;;;;;;;;;;;;;;;;;;5097435;28;19920;-31
2021/12/30 16:23:39;;;;;;;;;;;;;;;;;;5097271;28;19923;-33
2021/12/30 16:26:06;;;;;;;;;;;;;;;;;;5097764;28;19920;-32
2021/12/30 16:28:32;;;;;;;;;;;;;;;;;;5096512;28;19995;-32
2021/12/30 16:30:58;;;;;;;;;;;;;;;;;;5097424;28;19916;-30
2021/12/30 16:33:24;;;;;;;;;;;;;;;;;;5097603;28;19908;-34
2021/12/30 16:35:50;;;;;;;;;;;;;;;;;;5096400;28;19967;-34
2021/12/30 16:38:16;;;;;;;;;;;;;;;;;;5097264;28;20011;-32
2021/12/30 16:40:42;;;;;;;;;;;;;;;;;;5097392;28;19955;-33
2021/12/30 16:43:08;;;;;;;;;;;;;;;;;;5097548;28;20265;-34
2021/12/30 16:45:37;;;;;;;;;;;;;;;;;;5098356;28;19912;-31
2021/12/30 16:48:03;;;;;;;;;;;;;;;;;;5097048;28;19912;-31
2021/12/30 16:50:29;;;;;;;;;;;;;;;;;;5097117;28;20235;-30
2021/12/30 16:52:55;;;;;;;;;;;;;;;;;;5097218;28;20007;-31